Time;durP1;ratioP1;P1;durP2;ratioP2;P2;SDS_P1;SDS_P2;PMS_P1;PMS_P2;Temp;Humidity;BMP_temperature;BMP_pressure;BME280_temperature;BME280_humidity;BME280_pressure;Samples;Min_cycle;Max_cycle;Signal;HPM_P1;HPM_P2
2022/10/22 00:01:20;;;;;;;3.13;1.67;;;21.50;53.70;;;;;;5092729;28;20037;-38
2022/10/22 00:03:46;;;;;;;2.83;1.40;;;21.50;53.90;;;;;;5114007;28;20058;-38
2022/10/22 00:06:12;;;;;;;4.57;1.73;;;21.50;54.20;;;;;;5110567;28;20028;-37
2022/10/22 00:08:39;;;;;;;3.92;2.00;;;21.50;54.30;;;;;;5106316;28;20062;-37
2022/10/22 00:11:14;;;;;;;4.00;1.52;;;21.50;54.50;;;;;;5116560;28;20028;-41
2022/10/22 00:13:41;;;;;;;4.10;1.48;;;21.60;54.60;;;;;;5105451;28;20048;-38
2022/10/22 00:16:07;;;;;;;2.58;1.38;;;21.60;54.80;;;;;;5098728;28;20039;-38
2022/10/22 00:18:33;;;;;;;2.25;1.27;;;21.60;54.80;;;;;;5102953;28;20043;-38
2022/10/22 00:21:00;;;;;;;9.38;1.60;;;21.70;55.00;;;;;;5096423;28;20103;-39
2022/10/22 00:23:26;;;;;;;3.00;1.45;;;21.70;55.20;;;;;;5103519;28;20057;-38
2022/10/22 00:25:52;;;;;;;3.95;1.80;;;21.80;55.40;;;;;;5100810;28;20024;-37
2022/10/22 00:28:18;;;;;;;7.40;2.50;;;21.80;55.60;;;;;;5094683;28;20043;-37
2022/10/22 00:30:45;;;;;;;12.25;2.53;;;21.90;57.00;;;;;;5099596;28;20032;-37
2022/10/22 00:33:11;;;;;;;6.82;2.10;;;22.00;58.40;;;;;;5096425;28;20028;-46
2022/10/22 00:35:37;;;;;;;6.75;1.83;;;22.00;58.20;;;;;;5095363;28;20054;-51
2022/10/22 00:38:03;;;;;;;8.80;1.90;;;22.10;57.50;;;;;;5104956;28;20055;-46
2022/10/22 00:40:29;;;;;;;5.82;1.70;;;22.10;57.50;;;;;;5095693;28;20028;-39
2022/10/22 00:42:55;;;;;;;3.47;1.77;;;22.30;57.40;;;;;;5104102;28;20031;-43
2022/10/22 00:45:23;;;;;;;3.22;1.52;;;22.50;57.00;;;;;;5101881;28;20032;-50
2022/10/22 00:48:04;;;;;;;1.80;1.27;;;22.60;56.90;;;;;;5099775;28;20059;-43
2022/10/22 00:50:55;;;;;;;3.90;1.83;;;22.60;57.00;;;;;;5116369;27;20047;-47
2022/10/22 00:53:41;;;;;;;2.80;1.40;;;22.70;56.70;;;;;;5099046;28;20080;-38
2022/10/22 00:56:25;;;;;;;2.88;1.35;;;22.70;56.50;;;;;;5130693;27;20024;-39
2022/10/22 00:58:54;;;;;;;1.80;1.30;;;22.80;56.40;;;;;;5095302;28;20027;-41
2022/10/22 01:01:24;;;;;;;2.88;1.38;;;22.80;56.20;;;;;;5097448;28;20036;-45
2022/10/22 01:03:50;;;;;;;4.72;1.45;;;22.90;55.80;;;;;;5094408;28;20028;-44
2022/10/22 01:06:27;;;;;;;4.63;1.30;;;22.90;55.60;;;;;;5095552;28;20020;-50
2022/10/22 01:09:13;;;;;;;2.97;1.07;;;22.90;55.50;;;;;;5097365;28;20036;-43
2022/10/22 01:11:52;;;;;;;2.33;1.40;;;22.90;55.20;;;;;;5094616;28;20020;-42
2022/10/22 01:14:30;;;;;;;3.13;1.10;;;22.90;54.80;;;;;;5096652;28;20098;-44
2022/10/22 01:16:58;;;;;;;;;;;22.90;54.40;;;;;;5098206;28;20042;-47
2022/10/22 01:19:43;;;;;;;1.50;1.20;;;22.90;54.50;;;;;;5099121;28;19919;-47
2022/10/22 01:22:27;;;;;;;1.55;1.00;;;22.90;54.40;;;;;;5100649;28;20563;-49
2022/10/22 01:24:57;;;;;;;1.98;0.93;;;22.90;54.30;;;;;;5098967;28;20639;-45
2022/10/22 01:27:48;;;;;;;1.92;1.20;;;22.90;54.10;;;;;;5095042;28;20115;-45
2022/10/22 01:30:14;;;;;;;3.25;1.20;;;22.90;54.10;;;;;;5091721;28;20039;-51
2022/10/22 01:32:51;;;;;;;4.05;1.20;;;22.90;54.10;;;;;;5094234;28;20028;-51
2022/10/22 01:35:23;;;;;;;1.35;1.08;;;22.90;53.80;;;;;;5109416;27;20126;-50
2022/10/22 01:37:52;;;;;;;2.13;0.95;;;22.90;54.00;;;;;;5096643;28;20036;-49
2022/10/22 01:40:18;;;;;;;1.92;1.10;;;22.80;53.70;;;;;;5132001;27;20040;-46
2022/10/22 01:42:57;;;;;;;1.88;1.20;;;22.90;53.70;;;;;;5130801;27;20067;-45
2022/10/22 01:45:24;;;;;;;2.25;0.85;;;22.80;54.10;;;;;;5098025;28;20028;-49
2022/10/22 01:48:02;;;;;;;2.17;0.85;;;22.80;53.80;;;;;;5101247;28;20062;-46
2022/10/22 01:50:32;;;;;;;1.33;1.00;;;22.80;53.80;;;;;;5096980;28;20036;-48
2022/10/22 01:53:00;;;;;;;1.20;0.82;;;22.80;53.80;;;;;;5131143;27;20039;-45
2022/10/22 01:55:50;;;;;;;1.60;1.00;;;22.80;53.60;;;;;;5098421;28;20035;-49
2022/10/22 01:58:41;;;;;;;1.05;0.93;;;22.80;53.50;;;;;;5096444;28;20028;-46
2022/10/22 02:01:25;;;;;;;0.85;0.70;;;22.80;53.50;;;;;;5131063;27;20078;-48
2022/10/22 02:04:06;;;;;;;1.92;1.08;;;22.70;53.30;;;;;;5097887;28;20088;-47
2022/10/22 02:06:32;;;;;;;2.75;0.93;;;22.70;53.50;;;;;;5097360;28;20038;-45
2022/10/22 02:08:58;;;;;;;1.42;1.08;;;22.70;53.40;;;;;;5094922;28;20040;-44
2022/10/22 02:11:25;;;;;;;1.63;0.93;;;22.70;53.50;;;;;;5096697;28;20031;-51
2022/10/22 02:13:52;;;;;;;1.30;0.90;;;22.60;53.30;;;;;;5114049;28;20060;-43
2022/10/22 02:16:23;;;;;;;1.55;0.80;;;22.60;53.40;;;;;;5130055;27;20058;-42
2022/10/22 02:18:51;;;;;;;1.10;0.70;;;22.60;53.60;;;;;;5095437;28;20038;-42
2022/10/22 02:21:17;;;;;;;1.58;0.80;;;22.60;53.50;;;;;;5113970;28;20025;-42
2022/10/22 02:23:43;;;;;;;1.17;0.65;;;22.60;53.70;;;;;;5095848;28;20093;-43
2022/10/22 02:26:20;;;;;;;3.97;1.00;;;22.60;53.60;;;;;;5095945;28;20083;-42
2022/10/22 02:29:20;;;;;;;1.20;0.85;;;22.50;53.50;;;;;;5093780;28;20036;-44
2022/10/22 02:31:47;;;;;;;1.35;1.00;;;22.50;53.50;;;;;;5090294;28;20100;-42
2022/10/22 02:34:15;;;;;;;1.05;0.70;;;22.50;53.40;;;;;;5095333;28;20480;-41
2022/10/22 02:36:41;;;;;;;2.28;0.90;;;22.50;53.50;;;;;;5091827;28;20062;-41
2022/10/22 02:39:08;;;;;;;2.13;0.80;;;22.40;53.40;;;;;;5092167;28;20031;-42
2022/10/22 02:41:34;;;;;;;4.07;1.60;;;22.40;53.30;;;;;;5094334;28;20122;-41
2022/10/22 02:44:01;;;;;;;5.63;2.20;;;22.40;53.50;;;;;;5089842;28;20036;-42
2022/10/22 02:46:28;;;;;;;9.50;2.58;;;22.40;53.80;;;;;;5098211;28;20107;-38
2022/10/22 02:48:54;;;;;;;9.35;2.88;;;22.40;53.90;;;;;;5097778;28;20048;-41
2022/10/22 02:51:20;;;;;;;9.77;3.10;;;22.40;59.90;;;;;;5096626;28;20635;-40
2022/10/22 02:53:46;;;;;;;9.90;2.75;;;22.40;67.70;;;;;;5094006;28;20033;-41
2022/10/22 02:56:13;;;;;;;5.05;2.38;;;22.40;54.40;;;;;;5102247;28;20036;-43
2022/10/22 02:58:39;;;;;;;6.32;2.50;;;22.40;54.50;;;;;;5101632;28;20044;-37
2022/10/22 03:01:05;;;;;;;5.18;2.15;;;22.40;54.70;;;;;;5100166;28;20039;-41
2022/10/22 03:03:31;;;;;;;7.40;2.85;;;22.40;57.90;;;;;;5101992;28;20032;-45
2022/10/22 03:05:57;;;;;;;8.98;3.10;;;22.40;81.50;;;;;;5097427;28;20529;-48
2022/10/22 03:08:23;;;;;;;9.80;3.30;;;22.40;85.00;;;;;;5101516;28;20039;-48
2022/10/22 03:10:49;;;;;;;13.35;3.25;;;22.10;88.60;;;;;;5097496;28;20116;-46
2022/10/22 03:13:15;;;;;;;11.75;3.30;;;22.50;87.70;;;;;;5129738;27;20119;-47
2022/10/22 03:15:42;;;;;;;10.13;2.95;;;22.50;87.10;;;;;;5099826;28;20054;-45
2022/10/22 03:18:08;;;;;;;8.23;2.72;;;22.50;90.50;;;;;;5101352;28;20031;-46
2022/10/22 03:20:34;;;;;;;6.82;2.78;;;22.50;85.50;;;;;;5100620;28;20020;-44
2022/10/22 03:23:01;;;;;;;7.80;2.42;;;22.50;87.40;;;;;;5098421;28;20358;-44
2022/10/22 03:25:27;;;;;;;5.68;2.60;;;22.50;86.20;;;;;;5103815;28;20028;-44
2022/10/22 03:27:54;;;;;;;5.47;2.10;;;22.40;87.30;;;;;;5099705;28;20040;-46
2022/10/22 03:30:20;;;;;;;5.30;2.20;;;22.40;84.20;;;;;;5097073;28;20029;-47
2022/10/22 03:32:46;;;;;;;5.63;2.60;;;22.40;89.10;;;;;;5098020;28;20032;-46
2022/10/22 03:35:12;;;;;;;4.18;2.00;;;22.40;87.50;;;;;;5101114;28;20050;-44
2022/10/22 03:37:39;;;;;;;3.80;1.85;;;22.40;88.00;;;;;;5101291;28;20039;-44
2022/10/22 03:40:06;;;;;;;4.22;1.60;;;22.40;90.60;;;;;;5100709;28;20020;-45
2022/10/22 03:42:32;;;;;;;2.88;1.67;;;22.30;86.30;;;;;;5104568;28;20115;-45
2022/10/22 03:44:58;;;;;;;2.38;1.40;;;22.30;83.10;;;;;;5099965;28;20111;-44
2022/10/22 03:47:25;;;;;;;2.88;1.45;;;22.30;82.20;;;;;;5106594;28;20062;-47
2022/10/22 03:49:52;;;;;;;3.72;1.80;;;22.20;82.10;;;;;;5104324;28;20054;-40
2022/10/22 03:52:18;;;;;;;3.90;1.95;;;22.30;82.60;;;;;;5102122;28;20028;-38
2022/10/22 03:54:44;;;;;;;3.63;1.92;;;22.20;84.00;;;;;;5101124;28;20060;-36
2022/10/22 03:57:10;;;;;;;5.35;2.50;;;22.20;84.60;;;;;;5101172;28;20293;-37
2022/10/22 03:59:38;;;;;;;6.03;2.35;;;22.20;86.50;;;;;;5097542;28;20020;-40
2022/10/22 04:02:04;;;;;;;4.72;2.35;;;22.20;88.00;;;;;;5100729;28;20052;-40
2022/10/22 04:04:30;;;;;;;4.25;2.15;;;22.10;87.60;;;;;;5102807;28;20096;-45
2022/10/22 04:06:56;;;;;;;3.93;1.90;;;22.10;86.50;;;;;;5102712;28;20131;-38
2022/10/22 04:09:23;;;;;;;3.42;2.17;;;22.10;87.00;;;;;;5101925;28;20840;-38
2022/10/22 04:11:49;;;;;;;3.53;1.80;;;22.00;89.00;;;;;;5102693;28;20056;-37
2022/10/22 04:14:15;;;;;;;4.47;1.85;;;22.10;88.40;;;;;;5101082;28;20119;-39
2022/10/22 04:16:41;;;;;;;3.25;2.05;;;22.10;84.30;;;;;;5102146;28;20032;-39
2022/10/22 04:19:07;;;;;;;5.32;1.88;;;22.00;84.50;;;;;;5101495;28;20193;-37
2022/10/22 04:21:33;;;;;;;4.22;2.25;;;22.00;81.30;;;;;;5100903;28;20020;-42
2022/10/22 04:23:59;;;;;;;3.53;1.90;;;22.00;82.00;;;;;;5100897;28;20028;-39
2022/10/22 04:26:26;;;;;;;3.75;1.92;;;21.90;82.80;;;;;;5098458;28;20020;-41
2022/10/22 04:28:52;;;;;;;3.38;1.95;;;21.90;82.80;;;;;;5102214;28;20041;-44
2022/10/22 04:31:20;;;;;;;2.75;1.77;;;21.90;82.30;;;;;;5100023;28;20039;-43
2022/10/22 04:33:46;;;;;;;4.88;1.88;;;21.90;80.20;;;;;;5101259;28;20024;-43
2022/10/22 04:36:17;;;;;;;2.97;1.80;;;21.90;78.40;;;;;;5098081;28;20101;-39
2022/10/22 04:38:44;;;;;;;3.25;1.83;;;21.80;78.60;;;;;;5102521;28;20038;-41
2022/10/22 04:41:11;;;;;;;3.00;1.70;;;21.80;78.60;;;;;;5107606;28;20032;-42
2022/10/22 04:43:37;;;;;;;3.47;2.10;;;21.80;79.00;;;;;;5101441;28;20040;-41
2022/10/22 04:46:03;;;;;;;2.88;1.83;;;21.80;78.80;;;;;;5102239;28;20034;-42
2022/10/22 04:48:29;;;;;;;3.05;1.77;;;21.80;79.10;;;;;;5103569;28;20036;-43
2022/10/22 04:50:57;;;;;;;2.47;1.85;;;21.70;79.00;;;;;;5100905;28;20059;-41
2022/10/22 04:53:24;;;;;;;2.85;1.90;;;21.70;79.10;;;;;;5102029;28;20149;-41
2022/10/22 04:55:50;;;;;;;3.77;1.73;;;21.70;79.00;;;;;;5101858;28;20027;-41
2022/10/22 04:58:16;;;;;;;2.63;1.98;;;21.70;79.10;;;;;;5100108;28;20020;-41
2022/10/22 05:00:42;;;;;;;2.63;2.00;;;21.70;79.50;;;;;;5099581;28;20058;-43
2022/10/22 05:03:08;;;;;;;3.08;1.80;;;21.60;80.30;;;;;;5097859;28;20060;-43
2022/10/22 05:05:34;;;;;;;2.67;1.77;;;21.60;81.10;;;;;;5101578;28;20070;-42
2022/10/22 05:08:00;;;;;;;3.85;2.03;;;21.60;81.90;;;;;;5100864;28;20114;-43
2022/10/22 05:10:27;;;;;;;2.03;1.83;;;21.60;83.80;;;;;;5100059;28;20028;-42
2022/10/22 05:12:53;;;;;;;2.40;1.75;;;21.60;83.20;;;;;;5101191;28;20047;-43
2022/10/22 05:15:19;;;;;;;3.60;1.90;;;21.50;83.50;;;;;;5100591;28;20024;-39
2022/10/22 05:17:45;;;;;;;2.80;1.60;;;21.50;83.80;;;;;;5100823;28;20468;-39
2022/10/22 05:20:11;;;;;;;2.38;2.03;;;21.50;83.90;;;;;;5099587;28;20028;-39
2022/10/22 05:22:37;;;;;;;2.58;2.17;;;21.50;81.70;;;;;;5100887;28;20032;-39
2022/10/22 05:25:04;;;;;;;2.70;1.80;;;21.40;81.70;;;;;;5100927;28;20024;-39
2022/10/22 05:27:30;;;;;;;2.87;2.00;;;21.40;82.00;;;;;;5100999;28;20111;-39
2022/10/22 05:29:56;;;;;;;2.28;1.70;;;21.40;82.60;;;;;;5099365;28;20104;-39
2022/10/22 05:32:22;;;;;;;2.92;2.08;;;21.40;84.00;;;;;;5099577;28;20062;-40
2022/10/22 05:34:48;;;;;;;2.80;1.95;;;21.40;79.30;;;;;;5100901;28;20024;-39
2022/10/22 05:37:14;;;;;;;2.88;1.80;;;21.30;79.90;;;;;;5100086;28;20500;-39
2022/10/22 05:39:41;;;;;;;2.30;2.00;;;21.30;80.80;;;;;;5098290;28;20119;-43
2022/10/22 05:42:07;;;;;;;2.88;1.98;;;21.30;81.90;;;;;;5098095;28;20031;-43
2022/10/22 05:44:33;;;;;;;3.00;1.80;;;21.30;83.70;;;;;;5099630;28;20101;-43
2022/10/22 05:46:59;;;;;;;2.20;1.80;;;21.30;78.80;;;;;;5100208;28;20560;-38
2022/10/22 05:49:25;;;;;;;2.58;2.03;;;21.20;78.10;;;;;;5101374;28;20126;-38
2022/10/22 05:51:51;;;;;;;2.65;1.90;;;21.20;78.50;;;;;;5099720;28;20028;-37
2022/10/22 05:54:19;;;;;;;3.70;1.98;;;21.20;82.10;;;;;;5098589;28;20027;-39
2022/10/22 05:56:45;;;;;;;2.80;1.85;;;21.20;83.70;;;;;;5099068;28;20127;-40
2022/10/22 05:59:11;;;;;;;2.38;1.83;;;21.20;83.30;;;;;;5096993;28;20050;-39
2022/10/22 06:01:38;;;;;;;2.55;1.85;;;21.10;81.50;;;;;;5096509;28;20104;-40
2022/10/22 06:04:06;;;;;;;3.80;1.90;;;21.10;82.00;;;;;;5097330;28;20100;-39
2022/10/22 06:06:35;;;;;;;2.53;1.77;;;21.10;81.80;;;;;;5100456;28;20181;-39
2022/10/22 06:09:04;;;;;;;2.90;1.90;;;21.00;82.10;;;;;;5099575;28;20044;-39
2022/10/22 06:11:30;;;;;;;2.70;2.00;;;21.00;82.50;;;;;;5115677;27;20602;-39
2022/10/22 06:13:56;;;;;;;2.17;1.85;;;21.00;82.80;;;;;;5097473;28;20051;-39
2022/10/22 06:16:22;;;;;;;2.50;1.95;;;21.00;83.40;;;;;;5098650;28;20564;-39
2022/10/22 06:18:48;;;;;;;4.70;2.33;;;20.90;83.80;;;;;;5100263;28;20035;-39
2022/10/22 06:21:15;;;;;;;2.60;1.92;;;20.90;84.30;;;;;;5099828;28;20031;-39
2022/10/22 06:23:43;;;;;;;3.03;2.10;;;20.90;85.20;;;;;;5102054;28;20028;-40
2022/10/22 06:26:09;;;;;;;2.15;1.95;;;20.90;83.70;;;;;;5099639;28;20028;-40
2022/10/22 06:28:55;;;;;;;2.75;2.10;;;20.80;83.00;;;;;;5095210;28;20044;-42
2022/10/22 06:31:22;;;;;;;4.00;1.90;;;20.80;82.90;;;;;;5095428;28;20036;-40
2022/10/22 06:33:48;;;;;;;2.88;2.08;;;20.80;82.80;;;;;;5091849;28;20041;-40
2022/10/22 06:36:17;;;;;;;2.78;1.98;;;20.80;83.60;;;;;;5097350;28;20036;-41
2022/10/22 06:38:43;;;;;;;3.88;2.10;;;20.70;83.90;;;;;;5095198;28;20065;-40
2022/10/22 06:41:13;;;;;;;2.80;2.00;;;20.70;84.20;;;;;;5080316;28;20067;-40
2022/10/22 06:43:40;;;;;;;2.22;1.83;;;20.70;84.90;;;;;;5096345;28;20556;-41
2022/10/22 06:46:08;;;;;;;2.80;2.28;;;20.70;86.10;;;;;;5097040;28;20047;-43
2022/10/22 06:48:36;;;;;;;2.20;2.00;;;20.70;86.70;;;;;;5094508;28;20143;-38
2022/10/22 06:51:07;;;;;;;2.47;2.10;;;20.70;87.30;;;;;;5096932;28;20090;-38
2022/10/22 06:53:33;;;;;;;2.22;2.00;;;20.70;88.20;;;;;;5094339;28;20032;-38
2022/10/22 06:56:05;;;;;;;3.10;2.28;;;20.70;88.80;;;;;;5096978;28;20038;-38
2022/10/22 06:58:31;;;;;;;2.60;1.90;;;20.70;89.90;;;;;;5092587;28;20032;-40
2022/10/22 07:01:12;;;;;;;2.28;2.00;;;20.70;90.90;;;;;;5080352;28;20073;-41
2022/10/22 07:03:39;;;;;;;2.65;2.05;;;20.80;91.20;;;;;;5093229;28;20028;-41
2022/10/22 07:06:07;;;;;;;2.88;2.13;;;20.70;90.70;;;;;;5097021;28;20568;-43
2022/10/22 07:08:33;;;;;;;2.30;2.00;;;20.80;85.20;;;;;;5097294;28;20055;-42
2022/10/22 07:11:07;;;;;;;2.80;2.13;;;20.90;86.10;;;;;;5097686;28;20051;-45
2022/10/22 07:13:33;;;;;;;2.65;2.13;;;20.80;86.30;;;;;;5099655;28;20052;-38
2022/10/22 07:15:59;;;;;;;2.70;2.10;;;20.90;85.50;;;;;;5096397;28;20054;-38
2022/10/22 07:18:25;;;;;;;1.92;1.73;;;20.90;85.80;;;;;;5098149;28;20035;-39
2022/10/22 07:20:51;;;;;;;2.10;1.70;;;20.90;86.70;;;;;;5100138;28;20063;-39
2022/10/22 07:23:17;;;;;;;1.63;1.52;;;21.00;87.30;;;;;;5097176;28;20036;-40
2022/10/22 07:25:43;;;;;;;2.10;1.85;;;21.00;85.60;;;;;;5099284;28;20481;-40
2022/10/22 07:28:09;;;;;;;2.22;1.95;;;21.00;86.60;;;;;;5098504;28;20177;-40
2022/10/22 07:30:36;;;;;;;2.08;1.88;;;21.00;85.70;;;;;;5099745;28;20028;-41
2022/10/22 07:33:02;;;;;;;2.17;1.97;;;21.10;85.60;;;;;;5100233;28;20047;-41
2022/10/22 07:35:28;;;;;;;2.10;1.90;;;21.10;86.70;;;;;;5099161;28;20062;-42
2022/10/22 07:37:54;;;;;;;2.42;1.75;;;21.10;86.40;;;;;;5098558;28;20036;-43
2022/10/22 07:40:20;;;;;;;2.25;2.05;;;21.20;85.70;;;;;;5098747;28;20127;-42
2022/10/22 07:42:47;;;;;;;2.00;1.52;;;21.20;86.10;;;;;;5103944;28;20122;-44
2022/10/22 07:45:13;;;;;;;1.95;1.70;;;21.20;85.30;;;;;;5103673;28;20036;-47
2022/10/22 07:47:39;;;;;;;3.53;2.25;;;21.20;85.20;;;;;;5102711;28;20032;-43
2022/10/22 07:50:06;;;;;;;2.10;1.65;;;21.30;85.40;;;;;;5103013;28;20032;-42
2022/10/22 07:52:32;;;;;;;2.40;1.90;;;21.30;86.10;;;;;;5101954;28;20084;-43
2022/10/22 07:54:58;;;;;;;2.05;1.67;;;21.30;87.20;;;;;;5103212;28;20035;-38
2022/10/22 07:57:24;;;;;;;2.05;1.85;;;21.40;88.40;;;;;;5101686;28;20422;-39
2022/10/22 07:59:51;;;;;;;2.10;1.90;;;21.40;89.30;;;;;;5101787;28;20032;-40
2022/10/22 08:02:17;;;;;;;2.50;1.80;;;21.40;91.00;;;;;;5103006;28;20039;-39
2022/10/22 08:04:43;;;;;;;2.30;2.10;;;21.50;91.50;;;;;;5101205;28;20020;-38
2022/10/22 08:07:09;;;;;;;2.88;2.10;;;21.40;90.40;;;;;;5099816;28;20820;-39
2022/10/22 08:09:35;;;;;;;2.17;1.98;;;21.50;91.00;;;;;;5102934;28;20066;-39
2022/10/22 08:12:01;;;;;;;2.13;1.92;;;21.50;92.00;;;;;;5102557;28;20023;-38
2022/10/22 08:14:29;;;;;;;2.47;2.10;;;;;;;;;;5101135;28;20047;-38
2022/10/22 08:16:55;;;;;;;2.38;1.80;;;21.40;90.50;;;;;;5102735;28;20050;-38
2022/10/22 08:19:22;;;;;;;2.92;2.17;;;21.60;88.70;;;;;;5100075;28;20443;-37
2022/10/22 08:21:48;;;;;;;3.05;2.20;;;21.60;88.60;;;;;;5103060;28;20024;-42
2022/10/22 08:24:14;;;;;;;2.15;1.85;;;21.60;89.00;;;;;;5101568;28;20034;-38
2022/10/22 08:26:40;;;;;;;2.00;1.80;;;21.60;90.00;;;;;;5102524;28;20024;-39
2022/10/22 08:29:06;;;;;;;2.13;1.80;;;21.70;90.70;;;;;;5099118;28;20040;-45
2022/10/22 08:31:33;;;;;;;2.50;2.03;;;21.70;92.00;;;;;;5101214;28;20110;-49
2022/10/22 08:33:59;;;;;;;2.40;1.90;;;21.70;91.00;;;;;;5101961;28;20737;-46
2022/10/22 08:36:25;;;;;;;2.70;2.17;;;21.70;90.70;;;;;;5101167;28;20052;-46
2022/10/22 08:38:51;;;;;;;2.80;2.08;;;21.70;91.20;;;;;;5100393;28;20071;-46
2022/10/22 08:41:22;;;;;;;2.85;2.47;;;21.80;92.10;;;;;;5102050;28;20031;-44
2022/10/22 08:43:58;;;;;;;2.95;2.30;;;21.80;90.50;;;;;;5117130;27;20110;-45
2022/10/22 08:46:28;;;;;;;3.13;2.28;;;21.80;90.50;;;;;;5102469;28;20024;-43
2022/10/22 08:48:57;;;;;;;2.50;2.03;;;21.80;90.30;;;;;;5123779;27;20037;-46
2022/10/22 08:51:31;;;;;;;2.28;1.98;;;21.80;90.50;;;;;;5125991;27;20029;-42
2022/10/22 08:54:04;;;;;;;2.58;2.10;;;21.90;90.90;;;;;;5097235;28;20036;-44
2022/10/22 08:56:31;;;;;;;3.17;2.30;;;;;;;;;;5103599;28;20032;-42
2022/10/22 08:59:05;;;;;;;3.08;2.45;;;21.80;91.40;;;;;;5085846;28;20086;-42
2022/10/22 09:01:34;;;;;;;3.25;2.15;;;21.90;90.70;;;;;;5115574;28;20053;-46
2022/10/22 09:04:13;;;;;;;3.35;2.15;;;21.90;90.60;;;;;;5129407;27;20495;-46
2022/10/22 09:06:40;;;;;;;3.22;2.53;;;21.90;90.70;;;;;;5103783;28;20027;-44
2022/10/22 09:09:11;;;;;;;3.78;2.35;;;22.00;91.10;;;;;;5088609;28;20040;-44
2022/10/22 09:11:38;;;;;;;2.83;2.08;;;22.00;91.40;;;;;;5102294;28;20056;-45
2022/10/22 09:14:05;;;;;;;2.38;2.10;;;22.00;92.10;;;;;;5098970;28;20078;-43
2022/10/22 09:17:03;;;;;;;3.97;2.10;;;22.00;88.10;;;;;;5102652;28;20059;-43
2022/10/22 09:19:48;;;;;;;2.40;2.10;;;22.00;87.30;;;;;;5083891;28;20786;-45
2022/10/22 09:22:42;;;;;;;3.33;2.50;;;22.00;86.70;;;;;;5148479;27;20583;-46
2022/10/22 09:25:31;;;;;;;3.30;2.20;;;22.00;81.10;;;;;;5101025;28;20031;-45
2022/10/22 09:27:59;;;;;;;;;;;22.00;79.90;;;;;;5116582;28;20044;-44
2022/10/22 09:30:33;;;;;;;2.72;2.15;;;22.10;79.20;;;;;;5105068;28;19931;-45
2022/10/22 09:33:05;;;;;;;2.60;2.40;;;22.00;78.90;;;;;;5096958;28;20065;-41
2022/10/22 09:35:55;;;;;;;2.63;2.38;;;22.10;80.60;;;;;;5106620;28;20027;-41
2022/10/22 09:38:26;;;;;;;2.83;2.17;;;22.10;77.80;;;;;;5104804;28;20059;-38
2022/10/22 09:40:54;;;;;;;3.15;2.53;;;22.10;77.60;;;;;;5136333;27;20036;-38
2022/10/22 09:43:20;;;;;;;2.90;2.58;;;22.10;78.00;;;;;;5101281;28;20035;-37
2022/10/22 09:45:47;;;;;;;3.25;2.65;;;22.10;78.70;;;;;;5102227;28;20027;-43
2022/10/22 09:48:33;;;;;;;2.80;2.35;;;22.10;81.90;;;;;;5101179;28;20028;-41
2022/10/22 09:51:11;;;;;;;3.17;2.53;;;22.10;80.40;;;;;;5109027;27;20028;-38
2022/10/22 09:53:43;;;;;;;;;;;22.10;75.10;;;;;;5100083;28;20026;-38
2022/10/22 09:56:39;;;;;;;2.90;2.47;;;22.10;76.10;;;;;;5098852;28;19947;-38
2022/10/22 09:59:11;;;;;;;3.45;2.30;;;22.10;76.60;;;;;;5098043;28;20100;-38
2022/10/22 10:01:39;;;;;;;2.88;2.47;;;22.10;77.10;;;;;;5113374;27;20043;-41
2022/10/22 10:04:15;;;;;;;2.78;2.40;;;22.20;80.50;;;;;;5097219;28;20046;-46
2022/10/22 10:06:43;;;;;;;5.45;2.65;;;22.10;72.30;;;;;;5097065;28;20259;-46
2022/10/22 10:09:20;;;;;;;3.17;2.40;;;22.10;71.90;;;;;;5101109;28;20078;-40
2022/10/22 10:11:48;;;;;;;3.17;2.20;;;22.20;72.10;;;;;;5099254;28;20043;-40
2022/10/22 10:14:34;;;;;;;2.75;2.40;;;22.20;72.20;;;;;;5096947;28;20055;-42
2022/10/22 10:17:14;;;;;;;2.75;2.45;;;22.20;72.00;;;;;;5093946;28;20036;-40
2022/10/22 10:20:08;;;;;;;3.30;2.38;;;22.20;72.20;;;;;;5128864;27;20111;-38
2022/10/22 10:22:41;;;;;;;3.45;2.22;;;22.20;72.10;;;;;;5098775;28;20165;-38
2022/10/22 10:25:25;;;;;;;3.17;2.60;;;22.20;72.40;;;;;;5098113;28;20032;-39
2022/10/22 10:27:58;;;;;;;3.70;2.63;;;22.20;72.90;;;;;;5099435;28;20039;-39
2022/10/22 10:30:24;;;;;;;2.90;2.60;;;22.20;73.00;;;;;;5099311;28;20024;-39
2022/10/22 10:33:17;;;;;;;3.45;2.60;;;22.20;73.40;;;;;;5097874;28;20702;-40
2022/10/22 10:35:46;;;;;;;3.08;2.40;;;22.20;73.60;;;;;;5099672;28;20032;-41
2022/10/22 10:38:22;;;;;;;2.95;2.50;;;22.20;73.80;;;;;;5094764;28;20062;-49
2022/10/22 10:40:49;;;;;;;3.20;2.35;;;22.20;74.50;;;;;;5097008;28;20023;-41
2022/10/22 10:43:28;;;;;;;4.13;2.50;;;22.20;54.80;;;;;;5127027;27;20064;-40
2022/10/22 10:46:09;;;;;;;5.60;2.80;;;22.20;54.90;;;;;;5115703;28;20032;-60
2022/10/22 10:48:48;;;;;;;4.03;2.45;;;22.20;54.90;;;;;;5102767;28;20044;-42
2022/10/22 10:51:43;;;;;;;3.75;2.78;;;22.20;54.80;;;;;;5097006;28;20032;-43
2022/10/22 10:55:01;;;;;;;3.00;2.35;;;22.20;54.80;;;;;;5126461;27;20036;-42
2022/10/22 10:57:47;;;;;;;2.90;2.55;;;22.20;54.70;;;;;;5085841;28;20552;-40
2022/10/22 11:00:18;;;;;;;3.50;2.63;;;22.30;54.80;;;;;;5095018;28;20056;-41
2022/10/22 11:03:02;;;;;;;3.20;2.55;;;22.20;54.80;;;;;;5098463;28;20028;-43
2022/10/22 11:05:43;;;;;;;3.17;2.60;;;22.30;54.90;;;;;;5097940;28;20032;-44
2022/10/22 11:08:19;;;;;;;4.15;2.47;;;22.30;54.80;;;;;;5099964;28;20047;-43
2022/10/22 11:10:47;;;;;;;2.80;2.30;;;22.30;54.70;;;;;;5099657;28;20020;-43
2022/10/22 11:13:37;;;;;;;4.10;2.88;;;22.30;54.70;;;;;;5082174;28;20048;-43
2022/10/22 11:16:20;;;;;;;2.80;2.50;;;22.30;54.70;;;;;;5098900;28;20032;-43
2022/10/22 11:18:58;;;;;;;3.55;2.80;;;22.30;54.80;;;;;;5104215;28;20028;-44
2022/10/22 11:21:27;;;;;;;3.88;3.00;;;22.30;54.70;;;;;;5100098;28;20086;-41
2022/10/22 11:24:51;;;;;;;2.95;2.22;;;22.30;54.80;;;;;;5102585;28;20028;-41
2022/10/22 11:27:45;;;;;;;2.85;2.53;;;22.30;54.60;;;;;;5066451;28;20068;-42
2022/10/22 11:30:58;;;;;;;3.83;2.60;;;22.30;54.60;;;;;;5063679;28;20100;-39
2022/10/22 11:33:27;;;;;;;3.70;2.78;;;22.30;54.70;;;;;;5064667;28;20104;-37
2022/10/22 11:36:01;;;;;;;3.88;2.30;;;22.30;54.70;;;;;;5082747;28;20025;-37
2022/10/22 11:38:27;;;;;;;2.90;2.35;;;22.30;54.60;;;;;;5070880;28;20124;-39
2022/10/22 11:41:01;;;;;;;2.60;2.17;;;22.30;54.50;;;;;;5048885;28;20101;-38
2022/10/22 11:43:50;;;;;;;3.15;2.65;;;22.30;54.30;;;;;;5066846;28;20653;-38
2022/10/22 11:46:16;;;;;;;3.15;2.63;;;22.30;54.30;;;;;;5049509;28;20133;-42
2022/10/22 11:48:42;;;;;;;2.85;2.30;;;22.30;54.30;;;;;;5067265;28;20135;-39
2022/10/22 11:51:36;;;;;;;2.88;2.50;;;22.30;54.90;;;;;;5069108;28;20066;-38
2022/10/22 11:54:26;;;;;;;3.00;2.38;;;22.30;54.30;;;;;;5065380;28;20032;-39
2022/10/22 11:56:52;;;;;;;2.85;2.20;;;22.30;54.30;;;;;;5055036;28;20043;-43
2022/10/22 11:59:39;;;;;;;2.63;2.15;;;22.30;54.70;;;;;;5134944;27;20028;-38
2022/10/22 12:02:23;;;;;;;3.00;2.45;;;22.30;54.20;;;;;;5099805;28;20058;-39
2022/10/22 12:04:49;;;;;;;2.90;2.50;;;22.30;54.20;;;;;;5100914;28;20024;-40
2022/10/22 12:07:47;;;;;;;2.63;2.20;;;22.30;54.20;;;;;;5100036;28;20035;-41
2022/10/22 12:10:21;;;;;;;2.90;2.38;;;22.20;54.20;;;;;;5101591;28;20044;-39
2022/10/22 12:13:04;;;;;;;3.28;2.42;;;22.20;54.10;;;;;;5100088;28;20433;-44
2022/10/22 12:15:30;;;;;;;3.05;2.20;;;22.20;54.00;;;;;;5099197;28;20028;-40
2022/10/22 12:18:01;;;;;;;2.50;2.30;;;22.20;54.00;;;;;;5101975;28;20046;-38
2022/10/22 12:20:27;;;;;;;4.53;2.40;;;22.20;54.00;;;;;;5100747;28;20052;-39
2022/10/22 12:22:54;;;;;;;3.25;2.50;;;22.20;54.10;;;;;;5100804;28;20115;-44
2022/10/22 12:25:24;;;;;;;2.70;2.40;;;22.20;54.20;;;;;;5101244;28;20953;-47
2022/10/22 12:27:59;;;;;;;2.20;2.00;;;22.20;54.10;;;;;;5100977;28;20058;-44
2022/10/22 12:30:34;;;;;;;4.40;2.35;;;22.20;54.00;;;;;;5099861;28;20038;-47
2022/10/22 12:33:03;;;;;;;3.25;2.35;;;22.20;54.00;;;;;;5132172;27;20114;-43
2022/10/22 12:35:34;;;;;;;2.47;2.28;;;22.10;54.00;;;;;;5098503;28;20028;-46
2022/10/22 12:38:01;;;;;;;2.85;2.20;;;22.10;54.00;;;;;;5101748;28;20028;-45
2022/10/22 12:40:28;;;;;;;2.40;2.20;;;22.10;54.20;;;;;;5103477;28;20036;-44
2022/10/22 12:42:56;;;;;;;2.97;2.60;;;22.10;54.10;;;;;;5103098;28;20028;-43
2022/10/22 12:45:27;;;;;;;2.95;2.30;;;22.10;54.10;;;;;;5101290;28;20051;-44
2022/10/22 12:47:58;;;;;;;3.05;2.75;;;22.10;54.00;;;;;;5093562;28;20030;-47
2022/10/22 12:50:39;;;;;;;2.47;2.20;;;22.10;54.00;;;;;;5098370;28;20056;-43
2022/10/22 12:53:09;;;;;;;3.10;2.60;;;22.10;54.00;;;;;;5102602;28;20107;-43
2022/10/22 12:55:35;;;;;;;2.53;2.28;;;22.10;54.10;;;;;;5101468;28;20061;-44
2022/10/22 12:58:07;;;;;;;3.15;2.53;;;22.10;54.20;;;;;;5098442;28;20020;-43
2022/10/22 13:00:33;;;;;;;3.13;2.28;;;22.10;54.10;;;;;;5100531;28;20695;-43
2022/10/22 13:03:05;;;;;;;3.45;2.45;;;22.10;54.10;;;;;;5101651;28;20042;-41
2022/10/22 13:05:37;;;;;;;3.08;2.35;;;22.00;54.00;;;;;;5103136;28;20047;-44
2022/10/22 13:08:11;;;;;;;3.05;2.72;;;22.00;54.10;;;;;;5096178;28;20032;-44